Terminal Aerodrome Forecast
Issued by NWS Austin/San Antonio, TX

Home | Current Version | Previous Version | Text Only | Print | Product List | Glossary On
Versions: 1 2 3 4 5 6 7 8 9 10 11 12 13
214
FTUS44 KEWX 170539
TAFDRT
TAF
KDRT 170539Z 1706/1806 03003KT P6SM SKC
     FM171200 07004KT P6SM SKC
     FM171500 12007KT P6SM FEW100=

USA.gov is the U.S. government's official web portal to all federal, state and local government web resources and services.